Florimax — CUMI8 — position and weather

sailwx.info

Track history (hours):
 
Tides and Currents Weather Stations Pressure Air Temp Water Temp Dewpoint Dewpoint Depression Visibility Wind Speed Wind Dir Waves Ship Positions

Florimax

Last reported at 2018-Jun-24 22:00 UTC. Time now 2018-Jun-24 22:03 UTC.
Position N 37°57' W 008°52'.

Length 24 m.

Type: Fishing. MMSI: 263412470.

Date/timePositionNaut miles runAvg speedWind from/ knotsBaromVisibWave heightAir tempDewpointWater temp
2018-Jun-24 22:00N 37°57' W 008°52'0 0.1
2018-Jun-24 21:30N 37°57' W 008°52'0 0.0
2018-Jun-24 21:00N 37°57' W 008°52'0 0.0
2018-Jun-24 20:30N 37°57' W 008°52'0 0.0
2018-Jun-24 20:00N 37°57' W 008°52'0 0.0
2018-Jun-24 19:30N 37°57' W 008°52'0 0.0
2018-Jun-24 19:00N 37°57' W 008°52'0 0.0
2018-Jun-24 18:30N 37°57' W 008°52'3 5.6
2018-Jun-24 18:00N 37°55' W 008°55'15 0.4
2018-Jun-23 00:58N 37°56' W 009°14'2 3.5
2018-Jun-23 00:30N 37°58' W 009°13'1 1.4
2018-Jun-23 00:01N 37°57' W 009°12'2 3.2
2018-Jun-22 23:30N 37°55' W 009°12'2 3.1
2018-Jun-22 23:01N 37°54' W 009°12'2 3.2
2018-Jun-22 22:30N 37°52' W 009°11'2 3.2
2018-Jun-22 22:00N 37°51' W 009°11'15 0.8
2018-Jun-22 02:49N 37°56' W 008°53'1 3.5
2018-Jun-22 02:30N 37°57' W 008°52'0 0.0
2018-Jun-22 02:00N 37°57' W 008°52'0 0.0
2018-Jun-22 01:30N 37°57' W 008°52'0 0.0
2018-Jun-22 01:00N 37°57' W 008°52'0 0.0
2018-Jun-22 00:30N 37°57' W 008°52'0 0.0
2018-Jun-21 23:59N 37°57' W 008°52'0 0.0
2018-Jun-21 23:30N 37°57' W 008°52'0 0.0
2018-Jun-21 23:00N 37°57' W 008°52'0 0.0
2018-Jun-21 22:30N 37°57' W 008°52'0 0.0
2018-Jun-21 22:00N 37°57' W 008°52'0 0.0
2018-Jun-21 21:30N 37°57' W 008°52'0 0.0
2018-Jun-21 21:00N 37°57' W 008°52'0 0.0
2018-Jun-21 20:30N 37°57' W 008°52'1 0.0
2018-Jun-20 00:50N 37°56' W 008°53'1 2.5
2018-Jun-20 00:30N 37°57' W 008°52'0 0.0
2018-Jun-19 23:59N 37°57' W 008°52'0 0.0
2018-Jun-19 23:30N 37°57' W 008°52'0 0.0
2018-Jun-19 23:00N 37°57' W 008°52'0 0.0
2018-Jun-19 22:30N 37°57' W 008°52'0 0.0
2018-Jun-19 22:00N 37°57' W 008°52'0 0.0
2018-Jun-19 21:30N 37°57' W 008°52'0 0.0
2018-Jun-19 21:00N 37°57' W 008°52'0 0.0
2018-Jun-19 20:30N 37°57' W 008°52'0 0.0
2018-Jun-19 20:00N 37°57' W 008°52'1 0.0
2018-Jun-17 23:09N 37°56' W 008°53'1 7.7
2018-Jun-17 23:00N 37°57' W 008°52'0 0.5
2018-Jun-17 22:30N 37°57' W 008°52'0 0.0
2018-Jun-17 22:00N 37°57' W 008°52'0 0.0
2018-Jun-17 21:30N 37°57' W 008°52'0 0.0
2018-Jun-17 21:00N 37°57' W 008°52'0 0.0
2018-Jun-17 20:30N 37°57' W 008°52'0 0.0
2018-Jun-17 20:00N 37°57' W 008°52'0 0.0
2018-Jun-17 19:30N 37°57' W 008°52'0 0.0
2018-Jun-17 19:00N 37°57' W 008°52'0 0.0
2018-Jun-17 18:30N 37°57' W 008°52'0 0.0
2018-Jun-17 18:00N 37°57' W 008°52'0 0.0
2018-Jun-17 17:30N 37°57' W 008°52'0 0.0
2018-Jun-17 17:00N 37°57' W 008°52'0 0.3
2018-Jun-17 16:29N 37°57' W 008°52'  
2018-Jun-15 03:26N 37°55' W 008°54'3 6.5
2018-Jun-15 03:00N 37°57' W 008°52'0 0.1
2018-Jun-15 02:30N 37°57' W 008°52'0 0.0
2018-Jun-15 01:59N 37°57' W 008°52'0 0.0
2018-Jun-15 01:30N 37°57' W 008°52'0 0.0
2018-Jun-15 01:00N 37°57' W 008°52'0 0.0
2018-Jun-15 00:30N 37°57' W 008°52'0 0.0
2018-Jun-14 23:59N 37°57' W 008°52'0 0.0
2018-Jun-14 23:29N 37°57' W 008°52'0 0.0
2018-Jun-14 23:00N 37°57' W 008°52'0 0.0
2018-Jun-14 22:30N 37°57' W 008°52'0 0.0
2018-Jun-14 22:00N 37°57' W 008°52'  
Track history (hours):
 
Tides and Currents Weather Stations Pressure Air Temp Water Temp Dewpoint Dewpoint Depression Visibility Wind Speed Wind Dir Waves Ship Positions

Florimax

Last reported at 2018-Jun-24 22:00 UTC. Time now 2018-Jun-24 22:03 UTC.
Position N 37°57' W 008°52'.

Length 24 m.

Type: Fishing. MMSI: 263412470.

Date/timePositionNaut miles runAvg speedWind from/ knotsBaromVisibWave heightAir tempDewpointWater temp
2018-Jun-24 22:00N 37°57' W 008°52'0 0.1
2018-Jun-24 21:30N 37°57' W 008°52'0 0.0
2018-Jun-24 21:00N 37°57' W 008°52'0 0.0
2018-Jun-24 20:30N 37°57' W 008°52'0 0.0
2018-Jun-24 20:00N 37°57' W 008°52'0 0.0
2018-Jun-24 19:30N 37°57' W 008°52'0 0.0
2018-Jun-24 19:00N 37°57' W 008°52'0 0.0
2018-Jun-24 18:30N 37°57' W 008°52'3 5.6
2018-Jun-24 18:00N 37°55' W 008°55'15 0.4
2018-Jun-23 00:58N 37°56' W 009°14'2 3.5
2018-Jun-23 00:30N 37°58' W 009°13'1 1.4
2018-Jun-23 00:01N 37°57' W 009°12'2 3.2
2018-Jun-22 23:30N 37°55' W 009°12'2 3.1
2018-Jun-22 23:01N 37°54' W 009°12'2 3.2
2018-Jun-22 22:30N 37°52' W 009°11'2 3.2
2018-Jun-22 22:00N 37°51' W 009°11'15 0.8
2018-Jun-22 02:49N 37°56' W 008°53'1 3.5
2018-Jun-22 02:30N 37°57' W 008°52'0 0.0
2018-Jun-22 02:00N 37°57' W 008°52'0 0.0
2018-Jun-22 01:30N 37°57' W 008°52'0 0.0
2018-Jun-22 01:00N 37°57' W 008°52'0 0.0
2018-Jun-22 00:30N 37°57' W 008°52'0 0.0
2018-Jun-21 23:59N 37°57' W 008°52'0 0.0
2018-Jun-21 23:30N 37°57' W 008°52'0 0.0
2018-Jun-21 23:00N 37°57' W 008°52'0 0.0
2018-Jun-21 22:30N 37°57' W 008°52'0 0.0
2018-Jun-21 22:00N 37°57' W 008°52'0 0.0
2018-Jun-21 21:30N 37°57' W 008°52'0 0.0
2018-Jun-21 21:00N 37°57' W 008°52'0 0.0
2018-Jun-21 20:30N 37°57' W 008°52'1 0.0
2018-Jun-20 00:50N 37°56' W 008°53'1 2.5
2018-Jun-20 00:30N 37°57' W 008°52'0 0.0
2018-Jun-19 23:59N 37°57' W 008°52'0 0.0
2018-Jun-19 23:30N 37°57' W 008°52'0 0.0
2018-Jun-19 23:00N 37°57' W 008°52'0 0.0
2018-Jun-19 22:30N 37°57' W 008°52'0 0.0
2018-Jun-19 22:00N 37°57' W 008°52'0 0.0
2018-Jun-19 21:30N 37°57' W 008°52'0 0.0
2018-Jun-19 21:00N 37°57' W 008°52'0 0.0
2018-Jun-19 20:30N 37°57' W 008°52'0 0.0
2018-Jun-19 20:00N 37°57' W 008°52'1 0.0
2018-Jun-17 23:09N 37°56' W 008°53'1 7.7
2018-Jun-17 23:00N 37°57' W 008°52'0 0.5
2018-Jun-17 22:30N 37°57' W 008°52'0 0.0
2018-Jun-17 22:00N 37°57' W 008°52'0 0.0
2018-Jun-17 21:30N 37°57' W 008°52'0 0.0
2018-Jun-17 21:00N 37°57' W 008°52'0 0.0
2018-Jun-17 20:30N 37°57' W 008°52'0 0.0
2018-Jun-17 20:00N 37°57' W 008°52'0 0.0
2018-Jun-17 19:30N 37°57' W 008°52'0 0.0
2018-Jun-17 19:00N 37°57' W 008°52'0 0.0
2018-Jun-17 18:30N 37°57' W 008°52'0 0.0
2018-Jun-17 18:00N 37°57' W 008°52'0 0.0
2018-Jun-17 17:30N 37°57' W 008°52'0 0.0
2018-Jun-17 17:00N 37°57' W 008°52'0 0.3
2018-Jun-17 16:29N 37°57' W 008°52'  
2018-Jun-15 03:26N 37°55' W 008°54'3 6.5
2018-Jun-15 03:00N 37°57' W 008°52'0 0.1
2018-Jun-15 02:30N 37°57' W 008°52'0 0.0
2018-Jun-15 01:59N 37°57' W 008°52'0 0.0
2018-Jun-15 01:30N 37°57' W 008°52'0 0.0
2018-Jun-15 01:00N 37°57' W 008°52'0 0.0
2018-Jun-15 00:30N 37°57' W 008°52'0 0.0
2018-Jun-14 23:59N 37°57' W 008°52'0 0.0
2018-Jun-14 23:29N 37°57' W 008°52'0 0.0
2018-Jun-14 23:00N 37°57' W 008°52'0 0.0
2018-Jun-14 22:30N 37°57' W 008°52'0 0.0
2018-Jun-14 22:00N 37°57' W 008°52'  

Dump ship's entire track history